Time;durP1;ratioP1;P1;durP2;ratioP2;P2;SDS_P1;SDS_P2;PMS_P1;PMS_P2;Temp;Humidity;BMP_temperature;BMP_pressure;BME280_temperature;BME280_humidity;BME280_pressure;Samples;Min_cycle;Max_cycle;Signal;HPM_P1;HPM_P2
2023/10/08 00:01:19;;;;;;;14.82;5.43;;;;;;;16.37;94.07;102004.34;4972428;28;20122;-79
2023/10/08 00:03:50;;;;;;;16.45;4.80;;;;;;;16.38;94.42;102008.72;4971896;28;20034;-80
2023/10/08 00:06:19;;;;;;;15.10;4.85;;;;;;;16.41;94.01;101999.31;4972634;28;20171;-79
2023/10/08 00:19:03;;;;;;;14.85;5.20;;;;;;;16.25;95.48;102003.25;4981757;28;20047;-78
2023/10/08 00:24:57;;;;;;;10.82;4.63;;;;;;;16.24;95.93;101997.00;4962249;28;20081;-81
2023/10/08 00:33:43;;;;;;;12.20;4.70;;;;;;;16.18;97.60;102019.53;5153229;23;20142;-80
2023/10/08 00:36:20;;;;;;;10.07;4.75;;;;;;;16.18;97.66;102024.97;4956336;28;20781;-81
2023/10/08 00:39:13;;;;;;;13.32;4.88;;;;;;;16.15;97.77;102023.53;4978864;28;20034;-81
2023/10/08 00:41:45;;;;;;;13.07;4.93;;;;;;;16.12;98.78;102015.78;4965578;28;20034;-81
2023/10/08 00:44:21;;;;;;;13.30;5.20;;;;;;;16.14;98.89;102038.16;4972071;28;20115;-81
2023/10/08 00:46:48;;;;;;;15.93;5.15;;;;;;;16.06;99.06;102033.75;4970575;28;20042;-80
2023/10/08 00:52:26;;;;;;;15.45;5.07;;;;;;;16.00;100.00;102048.13;4954369;28;20376;-80
2023/10/08 00:55:08;;;;;;;12.98;4.80;;;;;;;15.98;100.00;102042.06;4938307;28;20597;-81
2023/10/08 00:57:42;;;;;;;16.00;5.13;;;;;;;15.98;100.00;102035.81;4961453;28;20050;-81
2023/10/08 01:03:42;;;;;;;13.50;5.05;;;;;;;15.93;100.00;102032.84;4932714;29;20075;-81
2023/10/08 01:06:34;;;;;;;14.30;4.97;;;;;;;15.98;100.00;102033.91;4953629;29;20330;-81
2023/10/08 01:09:17;;;;;;;10.88;4.35;;;;;;;16.05;100.00;102023.91;4938682;29;20471;-81
2023/10/08 01:11:49;;;;;;;13.50;4.88;;;;;;;16.10;100.00;102011.59;4930172;28;20063;-81
2023/10/08 01:14:36;;;;;;;15.27;4.57;;;;;;;16.04;100.00;102024.13;4969513;28;20121;-81
2023/10/08 01:17:19;;;;;;;14.15;5.13;;;;;;;16.09;100.00;102016.19;4958995;28;20093;-81
2023/10/08 01:19:54;;;;;;;13.18;5.13;;;;;;;16.08;100.00;102019.94;4955053;28;20027;-81
2023/10/08 01:22:40;;;;;;;14.50;4.72;;;;;;;16.20;100.00;102001.16;4971650;28;20085;-80
2023/10/08 01:25:57;;;;;;;13.20;4.40;;;;;;;16.13;100.00;102006.59;4978312;28;20498;-81
2023/10/08 01:28:42;;;;;;;14.88;5.47;;;;;;;16.16;100.00;101995.31;4974670;28;20038;-81
2023/10/08 01:31:41;;;;;;;11.68;4.38;;;;;;;16.00;100.00;102022.84;4974880;28;20466;-82
2023/10/08 01:34:17;;;;;;;12.05;4.70;;;;;;;15.86;100.00;102016.53;4971252;28;20047;-81
2023/10/08 01:36:48;;;;;;;12.57;4.43;;;;;;;15.87;100.00;102015.50;4970060;28;20130;-81
2023/10/08 01:39:46;;;;;;;14.85;4.90;;;;;;;15.95;100.00;102004.47;4951675;28;20046;-81
2023/10/08 01:44:56;;;;;;;15.55;5.30;;;;;;;15.87;100.00;101994.63;4983448;28;20041;-81
2023/10/08 01:47:43;;;;;;;15.35;5.10;;;;;;;16.01;100.00;101990.03;4989612;28;20058;-81
2023/10/08 01:50:39;;;;;;;16.20;4.97;;;;;;;16.11;100.00;101965.19;4973213;28;20108;-80
2023/10/08 01:53:47;;;;;;;13.02;4.97;;;;;;;16.06;100.00;101949.53;4972796;28;20394;-81
2023/10/08 01:56:16;;;;;;;18.25;5.35;;;;;;;15.90;100.00;102018.63;4974774;28;20042;-80
2023/10/08 01:58:43;;;;;;;14.88;4.90;;;;;;;15.80;100.00;102023.59;4972948;28;20042;-81
2023/10/08 02:01:21;;;;;;;13.02;4.90;;;;;;;15.74;100.00;102002.69;4972500;28;20037;-81
2023/10/08 02:03:47;;;;;;;11.88;5.03;;;;;;;15.69;100.00;102016.03;4972057;28;20130;-81
2023/10/08 02:06:39;;;;;;;13.82;5.28;;;;;;;15.66;100.00;102028.13;4994575;23;20118;-81
2023/10/08 02:09:25;;;;;;;17.35;4.95;;;;;;;15.67;100.00;102024.38;4987364;28;20520;-81
2023/10/08 02:11:54;;;;;;;14.80;5.50;;;;;;;15.61;100.00;102047.75;4997336;28;20427;-81
2023/10/08 02:14:30;;;;;;;;;;;;;;;;;;;;;
2023/10/08 02:17:17;;;;;;;12.32;5.18;;;;;;;15.59;100.00;102024.56;4988734;28;20118;-81
2023/10/08 02:19:43;;;;;;;;;;;;;;;15.56;100.00;102049.38;4995133;28;20136;-81
2023/10/08 02:22:20;;;;;;;13.07;4.90;;;;;;;15.51;100.00;102060.84;4988756;28;20024;-81
2023/10/08 02:31:40;;;;;;;11.93;4.88;;;;;;;15.60;100.00;102070.50;5145339;23;20077;-82
2023/10/08 02:34:16;;;;;;;11.85;4.97;;;;;;;15.61;100.00;102077.59;5007213;28;20029;-81
2023/10/08 02:36:42;;;;;;;12.80;4.93;;;;;;;15.59;100.00;102081.56;5009961;28;20053;-81
2023/10/08 02:39:31;;;;;;;;;;;;;;;;;;;;;
2023/10/08 02:42:17;;;;;;;12.82;4.60;;;;;;;15.73;100.00;102064.28;5005396;28;20042;-81
2023/10/08 02:44:45;;;;;;;13.93;5.03;;;;;;;15.75;100.00;102058.66;4978408;28;20029;-81
2023/10/08 02:47:45;;;;;;;13.43;5.60;;;;;;;15.73;100.00;102077.00;5010269;28;20065;-81
2023/10/08 02:53:43;;;;;;;13.05;4.50;;;;;;;15.73;100.00;102090.59;5207051;23;20124;-82
2023/10/08 02:56:40;;;;;;;15.27;5.80;;;;;;;15.74;100.00;102084.97;5013514;28;20359;-81
2023/10/08 02:59:15;;;;;;;19.50;5.93;;;;;;;15.87;100.00;102065.22;5010733;28;20046;-80
2023/10/08 03:01:42;;;;;;;11.43;4.90;;;;;;;15.91;100.00;102074.63;5009650;28;20030;-81
2023/10/08 03:04:45;;;;;;;17.42;5.20;;;;;;;15.86;100.00;102079.00;5015965;28;20161;-82
2023/10/08 03:07:51;;;;;;;15.85;4.97;;;;;;;15.83;100.00;102071.22;5009765;28;20112;-81
2023/10/08 03:10:41;;;;;;;16.25;5.25;;;;;;;15.97;100.00;102064.00;5008117;28;20097;-81
2023/10/08 03:17:07;;;;;;;14.38;5.22;;;;;;;15.99;100.00;102056.50;5008951;28;20056;-82
2023/10/08 03:19:44;;;;;;;15.00;5.18;;;;;;;15.80;100.00;102063.47;5085258;23;20057;-81
2023/10/08 03:22:44;;;;;;;12.60;5.07;;;;;;;15.75;100.00;102059.50;4999985;28;20034;-81
2023/10/08 03:25:45;;;;;;;11.55;4.95;;;;;;;15.83;100.00;102047.63;5016639;28;20045;-81
2023/10/08 03:28:21;;;;;;;11.73;4.43;;;;;;;15.81;100.00;102068.72;4967953;23;20085;-81
2023/10/08 03:30:50;;;;;;;12.57;4.82;;;;;;;15.73;100.00;102064.28;5000565;28;20036;-81
2023/10/08 03:36:20;;;;;;;10.07;4.97;;;;;;;15.47;100.00;102086.72;5009787;28;20052;-81
2023/10/08 03:38:51;;;;;;;7.57;4.13;;;;;;;15.23;100.00;102099.69;5020663;23;20141;-81
2023/10/08 03:41:39;;;;;;;6.45;3.85;;;;;;;15.05;100.00;102097.47;4947518;28;20114;-80
2023/10/08 03:44:56;;;;;;;7.72;4.45;;;;;;;14.82;100.00;102092.28;4945608;28;20031;-81
2023/10/08 03:47:52;;;;;;;5.80;4.47;;;;;;;14.57;100.00;102098.03;4953122;29;20127;-81
2023/10/08 03:50:17;;;;;;;7.15;4.55;;;;;;;14.55;100.00;102102.81;4953154;28;20126;-81
2023/10/08 03:52:44;;;;;;;5.90;4.60;;;;;;;14.45;100.00;102111.25;4953866;28;20126;-81
2023/10/08 03:57:48;;;;;;;4.88;3.78;;;;;;;14.33;100.00;102110.91;4975000;28;20035;-80
2023/10/08 04:00:17;;;;;;;6.55;3.80;;;;;;;14.23;100.00;102113.09;4977339;28;20466;-80
2023/10/08 04:02:46;;;;;;;5.47;3.50;;;;;;;14.13;100.00;102120.66;4979341;28;20022;-81
2023/10/08 04:05:19;;;;;;;6.40;3.95;;;;;;;14.03;100.00;102111.00;4976785;28;20034;-80
2023/10/08 04:13:44;;;;;;;5.55;3.33;;;;;;;13.82;100.00;102097.38;4951914;28;20472;-81
2023/10/08 04:19:43;;;;;;;5.75;3.50;;;;;;;13.78;100.00;102135.63;5889103;23;20390;-81
2023/10/08 04:22:24;;;;;;;5.13;3.58;;;;;;;13.76;100.00;102142.28;5008060;28;20025;-80
2023/10/08 04:24:50;;;;;;;5.25;3.47;;;;;;;13.77;100.00;102154.78;5005214;28;20598;-81
2023/10/08 04:27:22;;;;;;;6.70;3.30;;;;;;;13.73;100.00;102158.88;5010541;28;20037;-80
2023/10/08 04:29:49;;;;;;;5.35;3.20;;;;;;;13.69;100.00;102184.63;4999417;28;20045;-80
2023/10/08 04:32:24;;;;;;;5.00;3.00;;;;;;;13.75;100.00;102202.84;5010374;28;20121;-80
2023/10/08 04:35:00;;;;;;;7.35;3.33;;;;;;;13.73;100.00;102197.63;5006776;28;20049;-81
2023/10/08 04:37:32;;;;;;;3.55;3.00;;;;;;;13.65;100.00;102192.28;5009724;28;20030;-80
2023/10/08 04:39:59;;;;;;;3.03;2.72;;;;;;;13.66;100.00;102180.44;4997965;28;20030;-81
2023/10/08 04:42:48;;;;;;;4.50;3.08;;;;;;;13.63;100.00;102197.88;5016014;28;20431;-80
2023/10/08 04:52:19;;;;;;;5.00;3.40;;;;;;;13.46;100.00;102186.38;5000576;23;20450;-81
2023/10/08 04:54:54;;;;;;;3.72;3.40;;;;;;;13.32;100.00;102179.88;5006695;28;20038;-81
2023/10/08 04:57:36;;;;;;;4.13;3.60;;;;;;;13.29;100.00;102179.41;5006495;28;20048;-81
2023/10/08 05:00:16;;;;;;;6.93;4.05;;;;;;;13.25;100.00;102194.28;4994820;28;20062;-81
2023/10/08 05:02:50;;;;;;;4.93;3.70;;;;;;;13.18;100.00;102173.41;4989516;28;20049;-81
2023/10/08 05:12:47;;;;;;;6.72;4.82;;;;;;;13.04;100.00;102150.69;4992978;28;20030;-79
2023/10/08 05:18:12;;;;;;;10.50;5.25;;;;;;;13.00;100.00;102170.19;4994599;28;20034;-78
2023/10/08 05:23:20;;;;;;;8.88;5.18;;;;;;;12.99;100.00;102201.75;4991093;28;20037;-78
2023/10/08 05:28:35;;;;;;;9.18;5.57;;;;;;;12.87;100.00;102193.25;5002505;28;20503;-78
2023/10/08 05:34:15;;;;;;;7.63;5.25;;;;;;;12.84;100.00;102231.44;4992841;28;20030;-78
2023/10/08 05:39:54;;;;;;;5.55;3.55;;;;;;;12.80;100.00;102243.63;4927724;29;20059;-78
2023/10/08 05:42:31;;;;;;;5.63;3.65;;;;;;;12.80;100.00;102240.91;4981677;28;20045;-78
2023/10/08 05:52:58;;;;;;;5.07;3.80;;;;;;;12.54;100.00;102252.84;4998047;28;20034;-83
2023/10/08 05:55:35;;;;;;;5.10;3.10;;;;;;;12.48;100.00;102269.78;4996542;28;20540;-82
2023/10/08 05:58:24;;;;;;;;;;;;;;;12.45;100.00;102270.13;5005749;28;20053;-82
2023/10/08 06:01:26;;;;;;;4.18;2.90;;;;;;;12.42;100.00;102251.56;4991598;28;19949;-83
2023/10/08 06:04:03;;;;;;;6.63;3.33;;;;;;;12.32;100.00;102276.06;4992086;28;20096;-83
2023/10/08 06:06:37;;;;;;;6.60;2.67;;;;;;;12.33;100.00;102287.72;5008193;28;20017;-82
2023/10/08 06:14:16;;;;;;;5.47;2.60;;;;;;;12.25;100.00;102273.22;5002587;28;20053;-81
2023/10/08 06:17:23;;;;;;;5.80;2.58;;;;;;;12.27;100.00;102290.09;4994228;28;20030;-82
2023/10/08 06:19:49;;;;;;;4.90;2.35;;;;;;;12.26;100.00;102309.16;4998562;28;20031;-82
2023/10/08 06:22:16;;;;;;;5.25;2.22;;;;;;;12.23;100.00;102309.50;4990753;28;20030;-84
2023/10/08 06:24:45;;;;;;;6.10;2.75;;;;;;;12.25;100.00;102311.00;5006926;28;20040;-82
2023/10/08 06:27:45;;;;;;;5.95;2.50;;;;;;;12.28;100.00;102309.81;4999931;28;20090;-83
2023/10/08 06:40:23;;;;;;;;;;;;;;;;;;;;;
2023/10/08 06:43:49;;;;;;;;;;;;;;;;;;;;;
2023/10/08 06:50:16;;;;;;;4.30;2.00;;;;;;;11.78;100.00;102334.13;4841526;29;20125;-83
2023/10/08 06:59:43;;;;;;;4.70;2.15;;;;;;;11.90;100.00;102310.34;5190460;23;20059;-82
2023/10/08 07:06:37;;;;;;;2.70;1.60;;;;;;;11.90;100.00;102304.13;4931252;29;20098;-83
2023/10/08 07:09:05;;;;;;;5.72;1.80;;;;;;;11.98;100.00;102323.88;4981053;28;20048;-77
2023/10/08 07:11:39;;;;;;;3.65;2.00;;;;;;;12.12;100.00;102340.41;5009532;28;20022;-81
2023/10/08 07:14:56;;;;;;;3.42;1.67;;;;;;;12.21;100.00;102342.06;4984337;28;20042;-80
2023/10/08 07:17:23;;;;;;;5.43;1.90;;;;;;;12.26;100.00;102345.09;5009619;28;20041;-78
2023/10/08 07:19:51;;;;;;;2.42;1.88;;;;;;;12.33;100.00;102347.94;4990245;28;20386;-77
2023/10/08 07:22:22;;;;;;;3.25;2.10;;;;;;;12.35;100.00;102345.94;5014341;28;20029;-77
2023/10/08 07:24:50;;;;;;;2.58;1.90;;;;;;;12.32;100.00;102340.03;5014759;28;20483;-76
2023/10/08 07:27:21;;;;;;;5.55;2.05;;;;;;;12.42;100.00;102346.06;5016114;28;20060;-77
2023/10/08 07:29:47;;;;;;;5.35;1.80;;;;;;;12.50;100.00;102350.63;5011942;28;20026;-78
2023/10/08 07:32:12;;;;;;;3.80;1.70;;;;;;;12.53;100.00;102366.47;5015264;28;20022;-78
2023/10/08 07:34:39;;;;;;;3.95;1.80;;;;;;;12.56;100.00;102369.66;5015302;28;20037;-79
2023/10/08 07:37:07;;;;;;;1.85;1.67;;;;;;;12.58;100.00;102362.25;5012740;28;20056;-79
2023/10/08 07:39:45;;;;;;;3.63;1.73;;;;;;;12.61;100.00;102376.44;5013659;28;20030;-77
2023/10/08 07:42:32;;;;;;;1.98;1.70;;;;;;;12.56;100.00;102385.06;5011230;28;20042;-78
2023/10/08 07:44:57;;;;;;;;;;;;;;;12.56;100.00;102377.78;5012834;28;20061;-78
2023/10/08 07:47:23;;;;;;;3.63;1.60;;;;;;;12.64;100.00;102389.59;5011636;28;20320;-77
2023/10/08 07:49:48;;;;;;;2.33;1.90;;;;;;;12.58;100.00;102383.84;5011778;28;20025;-77
2023/10/08 07:52:15;;;;;;;3.92;1.83;;;;;;;12.53;100.00;102385.38;5011670;28;20049;-78
2023/10/08 07:54:41;;;;;;;3.10;1.83;;;;;;;12.46;100.00;102389.78;4995777;28;20088;-77
2023/10/08 07:57:11;;;;;;;1.98;1.63;;;;;;;12.49;100.00;102384.03;5009631;28;20045;-77
2023/10/08 07:59:56;;;;;;;2.55;2.00;;;;;;;12.57;100.00;102382.16;4996171;28;20041;-77
2023/10/08 08:02:23;;;;;;;2.63;2.10;;;;;;;12.59;100.00;102393.66;5014758;28;20038;-77
2023/10/08 08:04:52;;;;;;;4.88;1.83;;;;;;;12.66;100.00;102387.56;5015407;28;20038;-77
2023/10/08 08:07:20;;;;;;;3.20;2.45;;;;;;;12.66;100.00;102380.28;5013772;28;20030;-78
2023/10/08 08:09:50;;;;;;;3.45;2.47;;;;;;;12.64;100.00;102382.31;5013459;28;20021;-77
2023/10/08 08:12:24;;;;;;;4.07;2.33;;;;;;;12.57;100.00;102382.16;5013316;28;20095;-78
2023/10/08 08:14:50;;;;;;;2.92;2.30;;;;;;;12.72;100.00;102378.75;5011661;28;20104;-78
2023/10/08 08:17:17;;;;;;;3.22;2.67;;;;;;;12.78;100.00;102388.03;5012005;28;20482;-77
2023/10/08 08:19:50;;;;;;;4.55;2.80;;;;;;;12.89;100.00;102403.88;5011379;28;20048;-78
2023/10/08 08:22:22;;;;;;;3.03;2.67;;;;;;;12.89;100.00;102398.47;5010979;28;20025;-78
2023/10/08 08:25:15;;;;;;;3.17;2.33;;;;;;;13.00;100.00;102398.06;4997642;28;20045;-76
2023/10/08 08:27:46;;;;;;;3.50;2.75;;;;;;;13.01;100.00;102398.94;5015081;28;20449;-78
2023/10/08 08:30:15;;;;;;;4.40;2.75;;;;;;;13.02;100.00;102408.72;5010035;28;20026;-78
2023/10/08 08:32:52;;;;;;;2.95;2.40;;;;;;;13.26;99.86;102423.16;5012136;28;20177;-78
2023/10/08 08:35:19;;;;;;;3.10;2.50;;;;;;;13.33;99.45;102430.38;5011944;28;20105;-77
2023/10/08 08:37:46;;;;;;;3.85;2.13;;;;;;;13.29;95.98;102417.38;5013660;28;20080;-78
2023/10/08 08:40:18;;;;;;;3.10;2.80;;;;;;;13.31;96.28;102431.59;5006258;28;20058;-77
2023/10/08 08:42:47;;;;;;;3.13;2.38;;;;;;;13.33;95.72;102437.66;5009615;28;20029;-78
2023/10/08 08:45:20;;;;;;;3.85;2.38;;;;;;;13.51;96.27;102442.00;5011753;28;20022;-78
2023/10/08 08:47:45;;;;;;;5.38;2.15;;;;;;;13.48;94.53;102446.75;4993145;28;20053;-80
2023/10/08 08:50:11;;;;;;;3.67;2.22;;;;;;;13.33;94.65;102459.31;5011111;28;20498;-78
2023/10/08 08:52:36;;;;;;;3.40;2.10;;;;;;;13.38;96.50;102464.19;4978389;28;20041;-78
2023/10/08 08:55:06;;;;;;;4.07;2.13;;;;;;;13.34;95.30;102452.88;4989272;28;20026;-79
2023/10/08 08:57:33;;;;;;;6.63;2.55;;;;;;;13.42;95.42;102450.16;4999339;28;20058;-79
2023/10/08 08:59:59;;;;;;;4.47;2.22;;;;;;;13.59;93.36;102453.63;5011817;28;20034;-79
2023/10/08 09:02:32;;;;;;;3.90;2.22;;;;;;;13.60;93.25;102457.16;5009943;28;20055;-78
2023/10/08 09:04:59;;;;;;;3.85;2.10;;;;;;;13.60;91.88;102466.13;5015213;28;20041;-78
2023/10/08 09:07:25;;;;;;;3.33;2.13;;;;;;;13.80;90.29;102460.28;4996063;28;20030;-79
2023/10/08 09:09:50;;;;;;;6.85;2.20;;;;;;;13.94;91.70;102459.50;5011940;28;20128;-79
2023/10/08 09:15:14;;;;;;;4.32;2.10;;;;;;;13.99;88.26;102456.25;5009714;28;20041;-78
2023/10/08 09:17:41;;;;;;;3.55;1.80;;;;;;;14.03;88.42;102446.75;4977118;28;20072;-78
2023/10/08 09:20:07;;;;;;;4.18;1.95;;;;;;;14.20;86.25;102458.31;5010007;28;20034;-79
2023/10/08 09:22:35;;;;;;;4.53;2.10;;;;;;;14.20;85.86;102455.59;5012003;28;20034;-78
2023/10/08 09:25:05;;;;;;;3.97;2.03;;;;;;;14.34;86.02;102436.84;5011651;28;20294;-78
2023/10/08 09:27:30;;;;;;;4.07;2.28;;;;;;;14.27;85.45;102433.19;5010438;28;20092;-78
2023/10/08 09:29:56;;;;;;;4.40;2.15;;;;;;;14.31;85.59;102434.50;5010938;28;20034;-79
2023/10/08 09:32:24;;;;;;;3.03;2.15;;;;;;;14.27;88.09;102442.16;5013181;28;20089;-78
2023/10/08 09:34:51;;;;;;;4.47;2.20;;;;;;;14.31;87.26;102446.16;5011975;28;20477;-79
2023/10/08 09:37:27;;;;;;;3.35;2.13;;;;;;;14.52;85.87;102442.78;5010576;28;20096;-77
2023/10/08 09:39:52;;;;;;;;;;;;;;;14.56;85.41;102454.09;4995834;28;20061;-77
2023/10/08 09:42:21;;;;;;;2.10;1.90;;;;;;;14.70;84.32;102452.47;4994408;28;19967;-78
2023/10/08 09:44:47;;;;;;;4.10;2.75;;;;;;;14.65;84.09;102454.84;4993418;28;20378;-77
2023/10/08 09:47:12;;;;;;;4.13;2.42;;;;;;;14.56;84.67;102456.78;5012161;28;20032;-77
2023/10/08 09:50:02;;;;;;;3.92;2.50;;;;;;;14.70;86.08;102449.75;4993888;28;20076;-77
2023/10/08 09:52:34;;;;;;;4.88;2.35;;;;;;;14.91;84.92;102443.59;5008933;28;20036;-77
2023/10/08 09:55:03;;;;;;;3.88;2.58;;;;;;;14.87;83.57;102452.28;4994635;28;20029;-77
2023/10/08 09:57:28;;;;;;;3.20;2.58;;;;;;;14.94;83.52;102454.06;5012059;28;20050;-77
2023/10/08 09:59:57;;;;;;;3.50;2.58;;;;;;;14.95;83.22;102454.88;5011094;28;20032;-77
2023/10/08 10:02:24;;;;;;;4.10;2.80;;;;;;;14.89;83.71;102450.22;4993282;28;20046;-77
2023/10/08 10:04:52;;;;;;;3.83;2.38;;;;;;;14.97;83.88;102461.84;4993882;28;20449;-77
2023/10/08 10:07:20;;;;;;;4.32;3.25;;;;;;;14.81;84.30;102460.13;5012676;28;20024;-77
2023/10/08 10:09:50;;;;;;;3.22;2.90;;;;;;;15.06;85.01;102459.00;5015680;28;20032;-77
2023/10/08 10:12:26;;;;;;;4.10;2.90;;;;;;;15.34;83.80;102461.06;5012905;28;20419;-78
2023/10/08 10:14:57;;;;;;;4.53;3.50;;;;;;;15.55;81.82;102466.53;5016719;28;20049;-77
2023/10/08 10:17:25;;;;;;;4.30;3.20;;;;;;;16.02;81.04;102472.50;5015493;28;20497;-78
2023/10/08 10:19:59;;;;;;;4.00;2.63;;;;;;;16.17;77.25;102458.00;5013873;28;20030;-78
2023/10/08 10:22:33;;;;;;;3.08;2.65;;;;;;;16.06;76.75;102451.25;4995270;28;20022;-78
2023/10/08 10:25:03;;;;;;;3.40;2.10;;;;;;;16.08;75.96;102454.56;5014334;28;20378;-77
2023/10/08 10:27:29;;;;;;;2.88;2.35;;;;;;;15.93;75.04;102460.09;5012522;28;20047;-77
2023/10/08 10:30:04;;;;;;;3.00;2.22;;;;;;;16.39;74.97;102467.00;5012516;28;20033;-77
2023/10/08 10:32:29;;;;;;;4.20;2.40;;;;;;;16.53;72.96;102457.03;5015262;28;20076;-77
2023/10/08 10:34:55;;;;;;;3.30;2.47;;;;;;;16.63;72.59;102454.84;4989620;28;20026;-78
2023/10/08 10:37:23;;;;;;;4.00;2.22;;;;;;;16.92;71.48;102458.38;4994522;28;20034;-77
2023/10/08 10:39:59;;;;;;;3.70;2.22;;;;;;;17.08;70.88;102464.53;4994365;28;20026;-78
2023/10/08 10:42:28;;;;;;;3.33;2.20;;;;;;;17.21;70.69;102458.34;4980557;28;20026;-78
2023/10/08 10:44:55;;;;;;;2.33;2.10;;;;;;;17.13;70.54;102468.34;4991817;28;20053;-77
2023/10/08 10:47:25;;;;;;;4.00;2.42;;;;;;;16.70;72.35;102464.91;5011448;28;20512;-78
2023/10/08 10:52:32;;;;;;;2.55;2.00;;;;;;;16.75;72.63;102468.72;5010957;28;20026;-78
2023/10/08 10:57:41;;;;;;;2.10;1.70;;;;;;;16.38;74.06;102473.47;5005849;28;20079;-79
2023/10/08 11:02:56;;;;;;;3.05;1.77;;;;;;;16.18;74.63;102473.28;4990155;28;20125;-79
2023/10/08 11:05:28;;;;;;;1.65;1.40;;;;;;;16.60;74.07;102474.25;5009116;28;20033;-79
2023/10/08 11:08:06;;;;;;;3.20;1.80;;;;;;;16.96;73.04;102473.28;4996501;28;20038;-78
2023/10/08 11:10:50;;;;;;;2.17;1.75;;;;;;;16.83;73.39;102470.47;4973489;28;20110;-79
2023/10/08 11:13:16;;;;;;;2.33;1.60;;;;;;;16.97;72.90;102468.66;5009353;28;20022;-79
2023/10/08 11:15:48;;;;;;;4.10;1.80;;;;;;;16.68;73.93;102465.13;5008718;28;20356;-79
2023/10/08 11:18:17;;;;;;;4.30;1.77;;;;;;;16.63;73.32;102468.44;4991900;28;20501;-78
2023/10/08 11:20:45;;;;;;;2.70;1.35;;;;;;;16.87;72.60;102460.84;5001247;28;20038;-78
2023/10/08 11:23:35;;;;;;;1.83;1.58;;;;;;;16.65;73.39;102454.63;5005624;28;20415;-79
2023/10/08 11:26:03;;;;;;;1.67;1.58;;;;;;;16.86;72.62;102461.03;4999802;28;20033;-78
2023/10/08 11:28:41;;;;;;;1.30;1.20;;;;;;;17.23;71.47;102456.25;5008331;28;20316;-78
2023/10/08 11:31:11;;;;;;;1.40;1.30;;;;;;;17.57;68.65;102446.34;4996552;28;20525;-78
2023/10/08 11:44:43;;;;;;;2.00;1.30;;;;;;;18.94;63.07;102443.25;4888188;27;6418581;-80
2023/10/08 11:47:12;;;;;;;1.70;1.38;;;;;;;18.02;65.47;102441.22;5079704;28;20024;-77
2023/10/08 11:49:46;;;;;;;1.63;1.33;;;;;;;18.21;65.08;102435.16;5064684;28;20025;-77
2023/10/08 11:52:41;;;;;;;1.30;1.20;;;;;;;18.07;65.68;102439.75;5058372;28;20044;-76
2023/10/08 11:55:19;;;;;;;2.03;1.25;;;;;;;17.80;67.14;102428.81;5086394;28;20415;-78
2023/10/08 11:57:52;;;;;;;1.35;1.25;;;;;;;17.71;67.12;102441.78;5083642;28;20108;-78
2023/10/08 12:01:03;;;;;;;1.55;1.33;;;;;;;17.63;67.06;102429.19;5081143;28;20377;-79
2023/10/08 12:03:52;;;;;;;1.60;1.27;;;;;;;17.15;69.70;102421.03;5088880;28;20028;-78
2023/10/08 12:06:18;;;;;;;1.98;1.65;;;;;;;17.36;69.50;102429.09;5083952;28;20039;-78
2023/10/08 12:08:59;;;;;;;1.60;1.50;;;;;;;17.25;69.68;102422.34;5066311;22;20091;-79
2023/10/08 12:12:13;;;;;;;1.77;1.40;;;;;;;17.31;70.52;102408.97;5032905;28;20029;-79
2023/10/08 12:15:03;;;;;;;2.05;1.30;;;;;;;17.35;69.91;102412.97;5002071;28;20038;-78
2023/10/08 12:17:42;;;;;;;1.45;1.30;;;;;;;17.34;69.92;102398.50;4959611;28;20257;-79
2023/10/08 12:23:23;;;;;;;4.05;1.50;;;;;;;17.17;69.43;102392.59;4968851;28;20033;-79
2023/10/08 12:25:51;;;;;;;2.38;1.10;;;;;;;17.51;66.96;102392.69;5033863;28;20128;-79
2023/10/08 12:29:08;;;;;;;2.67;1.35;;;;;;;17.52;67.13;102395.22;5046090;28;20053;-79
2023/10/08 12:31:46;;;;;;;1.80;1.30;;;;;;;17.38;66.52;102399.78;5046739;28;20125;-79
2023/10/08 12:34:11;;;;;;;2.28;1.17;;;;;;;17.11;66.57;102399.69;5031299;28;20044;-78
2023/10/08 12:36:37;;;;;;;3.55;1.17;;;;;;;16.99;67.44;102381.44;5043887;28;20036;-78
2023/10/08 12:39:09;;;;;;;2.63;1.20;;;;;;;16.71;67.74;102374.97;5041405;28;20041;-79
2023/10/08 12:41:53;;;;;;;3.15;1.20;;;;;;;16.67;68.74;102374.56;5037878;28;20044;-78
2023/10/08 12:44:19;;;;;;;4.47;1.48;;;;;;;16.93;68.92;102381.16;5033778;28;20026;-78
2023/10/08 12:46:48;;;;;;;3.42;1.30;;;;;;;17.11;67.83;102369.78;5024501;28;20095;-79
2023/10/08 12:49:14;;;;;;;3.70;1.13;;;;;;;17.17;66.77;102364.53;5039528;28;20025;-78
2023/10/08 12:51:41;;;;;;;2.28;1.02;;;;;;;17.54;66.09;102357.75;5027736;28;20043;-79
2023/10/08 12:54:10;;;;;;;3.70;1.48;;;;;;;17.53;65.66;102353.34;5029917;28;20029;-78
2023/10/08 12:56:38;;;;;;;1.90;1.17;;;;;;;17.63;65.11;102347.50;5025562;28;20113;-79
2023/10/08 12:59:06;;;;;;;4.20;1.33;;;;;;;17.56;64.15;102349.34;5028492;28;20740;-79
2023/10/08 13:01:41;;;;;;;7.72;1.75;;;;;;;17.39;65.09;102354.34;5030969;28;20038;-77
2023/10/08 13:04:15;;;;;;;4.03;1.00;;;;;;;17.28;66.36;102358.53;5032355;28;20126;-78
2023/10/08 13:06:45;;;;;;;4.70;1.20;;;;;;;17.25;65.62;102358.91;5020929;28;20088;-79
2023/10/08 13:09:12;;;;;;;2.67;1.33;;;;;;;16.68;67.03;102357.16;5029924;28;20049;-78
2023/10/08 13:11:38;;;;;;;3.53;1.30;;;;;;;16.55;67.43;102350.84;5027341;28;20054;-79
2023/10/08 13:14:04;;;;;;;3.25;1.30;;;;;;;16.60;67.64;102342.91;5019938;28;20084;-78
2023/10/08 13:16:31;;;;;;;5.78;1.60;;;;;;;16.59;67.09;102343.97;5028487;28;20026;-77
2023/10/08 13:18:58;;;;;;;2.83;1.20;;;;;;;16.41;68.65;102333.59;5032029;28;20130;-77
2023/10/08 13:21:28;;;;;;;5.60;1.60;;;;;;;16.61;68.78;102328.28;5032106;28;20025;-78
2023/10/08 13:23:56;;;;;;;5.90;1.65;;;;;;;16.70;68.47;102337.97;5033914;28;20032;-77
2023/10/08 13:26:24;;;;;;;4.80;1.42;;;;;;;16.52;69.28;102325.72;5021364;28;20037;-79
2023/10/08 13:28:49;;;;;;;4.32;1.40;;;;;;;16.49;69.88;102325.31;5022241;28;20450;-78
2023/10/08 13:31:16;;;;;;;4.45;1.65;;;;;;;16.88;69.15;102329.22;5027671;28;20025;-77
2023/10/08 13:33:44;;;;;;;4.35;1.52;;;;;;;16.92;68.29;102318.81;5027928;28;20049;-77
2023/10/08 13:36:10;;;;;;;4.10;1.50;;;;;;;17.15;67.88;102331.25;5035085;28;20501;-76
2023/10/08 13:38:36;;;;;;;5.97;1.63;;;;;;;16.65;68.79;102329.56;5032198;28;20479;-77
2023/10/08 13:41:20;;;;;;;4.00;1.50;;;;;;;16.63;68.81;102315.31;5021386;28;20533;-77
2023/10/08 13:43:46;;;;;;;6.20;1.80;;;;;;;16.51;69.05;102334.94;5019738;28;20044;-77
2023/10/08 13:46:13;;;;;;;6.15;1.42;;;;;;;16.43;69.64;102336.97;5021516;28;20338;-79
2023/10/08 13:48:39;;;;;;;4.18;1.45;;;;;;;16.49;70.29;102337.00;5033133;28;20040;-79
2023/10/08 13:51:05;;;;;;;5.43;1.77;;;;;;;16.12;70.67;102339.06;5025771;28;20029;-78
2023/10/08 13:53:32;;;;;;;4.07;1.90;;;;;;;15.99;72.10;102347.94;5030980;28;20033;-78
2023/10/08 13:56:00;;;;;;;3.60;1.70;;;;;;;15.99;72.12;102330.81;5024238;28;20026;-77
2023/10/08 13:58:29;;;;;;;5.32;1.98;;;;;;;15.93;72.71;102342.44;5026796;28;20018;-79
2023/10/08 14:00:56;;;;;;;7.00;2.00;;;;;;;16.15;74.04;102343.28;5031692;28;20032;-78
2023/10/08 14:03:21;;;;;;;4.93;2.35;;;;;;;16.10;73.63;102327.53;5029853;28;20037;-79
2023/10/08 14:05:51;;;;;;;5.40;2.38;;;;;;;15.95;73.33;102313.22;5023396;28;20087;-78
2023/10/08 14:08:19;;;;;;;7.70;2.47;;;;;;;15.79;74.50;102317.06;5025377;28;20409;-78
2023/10/08 14:10:48;;;;;;;4.68;2.50;;;;;;;15.87;74.19;102338.66;5030097;28;20049;-76
2023/10/08 14:13:14;;;;;;;3.88;1.90;;;;;;;15.65;74.71;102325.06;5027690;28;20040;-77
2023/10/08 14:15:46;;;;;;;5.38;2.33;;;;;;;15.58;74.73;102335.84;5029458;28;20523;-78
2023/10/08 14:18:16;;;;;;;8.77;4.80;;;;;;;15.64;74.62;102333.41;5018813;28;20033;-78
2023/10/08 14:20:46;;;;;;;6.53;3.65;;;;;;;15.75;74.76;102332.88;5032753;28;20103;-77
2023/10/08 14:23:16;;;;;;;5.80;2.78;;;;;;;15.98;74.69;102335.38;5020488;28;20025;-77
2023/10/08 14:25:45;;;;;;;5.43;2.58;;;;;;;15.94;73.48;102331.41;5023643;28;20029;-75
2023/10/08 14:28:21;;;;;;;4.05;2.33;;;;;;;15.76;75.24;102326.41;5025423;28;20035;-77
2023/10/08 14:30:52;;;;;;;5.18;2.08;;;;;;;15.72;74.64;102319.69;5020914;28;20120;-76